Time;durP1;ratioP1;P1;durP2;ratioP2;P2;SDS_P1;SDS_P2;PMS_P1;PMS_P2;Temp;Humidity;BMP_temperature;BMP_pressure;BME280_temperature;BME280_humidity;BME280_pressure;Samples;Min_cycle;Max_cycle;Signal;HPM_P1;HPM_P2
2023/07/03 00:01:44;;;;;;;;;;;17.50;99.90;;;;;;5098579;28;19908;-51
2023/07/03 00:04:10;;;;;;;;;;;17.50;99.90;;;;;;5098613;28;19919;-53
2023/07/03 00:06:36;;;;;;;;;;;17.50;99.90;;;;;;5098479;28;19908;-53
2023/07/03 00:09:02;;;;;;;;;;;17.50;99.90;;;;;;5098121;28;20349;-49
2023/07/03 00:11:28;;;;;;;;;;;17.50;99.90;;;;;;5098459;28;19908;-53
2023/07/03 00:13:54;;;;;;;;;;;17.50;99.90;;;;;;5098095;28;19912;-52
2023/07/03 00:16:19;;;;;;;;;;;17.50;99.90;;;;;;5098516;28;19912;-54
2023/07/03 00:18:48;;;;;;;;;;;17.50;99.90;;;;;;5098293;28;19915;-50
2023/07/03 00:21:14;;;;;;;;;;;17.50;99.90;;;;;;5098297;28;19908;-52
2023/07/03 00:23:39;;;;;;;;;;;17.60;99.90;;;;;;5097961;28;19919;-54
2023/07/03 00:26:05;;;;;;;;;;;17.50;99.90;;;;;;5098135;28;19915;-50
2023/07/03 00:28:31;;;;;;;;;;;17.60;99.90;;;;;;5098268;28;20333;-54
2023/07/03 00:30:57;;;;;;;;;;;17.60;99.90;;;;;;5098104;28;20373;-53
2023/07/03 00:33:22;;;;;;;;;;;17.50;99.90;;;;;;5098456;28;19958;-54
2023/07/03 00:35:48;;;;;;;;;;;17.60;99.90;;;;;;5098064;28;19912;-55
2023/07/03 00:38:13;;;;;;;;;;;17.60;99.90;;;;;;5097877;28;19916;-51
2023/07/03 00:40:39;;;;;;;;;;;17.60;99.90;;;;;;5098092;28;20364;-54
2023/07/03 00:43:05;;;;;;;;;;;17.60;99.90;;;;;;5097833;28;19909;-53
2023/07/03 00:45:32;;;;;;;;;;;17.60;99.90;;;;;;5098018;28;20008;-52
2023/07/03 00:47:58;;;;;;;;;;;17.60;99.90;;;;;;5096436;28;19944;-55
2023/07/03 00:50:23;;;;;;;;;;;17.60;99.90;;;;;;5098022;28;19908;-52
2023/07/03 00:52:51;;;;;;;;;;;17.60;99.90;;;;;;5098100;28;20447;-52
2023/07/03 00:55:17;;;;;;;;;;;17.50;99.90;;;;;;5097790;28;19961;-54
2023/07/03 00:57:43;;;;;;;;;;;17.50;99.90;;;;;;5097655;28;19912;-55
2023/07/03 01:00:09;;;;;;;;;;;17.60;99.90;;;;;;5099848;28;19908;-52
2023/07/03 01:02:39;;;;;;;;;;;17.50;99.90;;;;;;5101777;28;19930;-53
2023/07/03 01:05:14;;;;;;;;;;;17.60;99.90;;;;;;5101731;28;19908;-54
2023/07/03 01:07:40;;;;;;;;;;;17.60;99.90;;;;;;5101623;28;19979;-50
2023/07/03 01:10:32;;;;;;;;;;;17.60;99.90;;;;;;5102010;28;19908;-53
2023/07/03 01:13:00;;;;;;;;;;;17.60;99.90;;;;;;5099475;28;19908;-53
2023/07/03 01:15:27;;;;;;;;;;;17.50;99.90;;;;;;5101447;28;19913;-49
2023/07/03 01:17:54;;;;;;;;;;;17.50;99.90;;;;;;5101979;28;19914;-52
2023/07/03 01:20:21;;;;;;;;;;;17.50;99.90;;;;;;5101273;28;20406;-52
2023/07/03 01:23:05;;;;;;;;;;;17.50;99.90;;;;;;5100287;28;19969;-51
2023/07/03 01:25:32;;;;;;;;;;;17.40;99.90;;;;;;5101732;28;19973;-52
2023/07/03 01:27:59;;;;;;;;;;;17.40;99.90;;;;;;5101372;28;19908;-53
2023/07/03 01:30:26;;;;;;;;;;;17.40;99.90;;;;;;5101446;28;19908;-53
2023/07/03 01:32:53;;;;;;;;;;;17.30;99.90;;;;;;5101449;28;19908;-54
2023/07/03 01:35:19;;;;;;;;;;;17.30;99.90;;;;;;5099840;28;19912;-54
2023/07/03 01:37:47;;;;;;;;;;;17.40;99.90;;;;;;5101181;28;19915;-53
2023/07/03 01:40:14;;;;;;;;;;;17.40;99.90;;;;;;5100735;28;19907;-54
2023/07/03 01:42:41;;;;;;;;;;;17.30;99.90;;;;;;5101284;28;19936;-54
2023/07/03 01:45:07;;;;;;;;;;;17.30;99.90;;;;;;5100808;28;19909;-53
2023/07/03 01:47:32;;;;;;;;;;;17.30;99.90;;;;;;5100899;28;19931;-54
2023/07/03 01:49:58;;;;;;;;;;;17.30;99.90;;;;;;5101113;28;19908;-52
2023/07/03 01:52:30;;;;;;;;;;;17.30;99.90;;;;;;5100776;28;19930;-54
2023/07/03 01:55:03;;;;;;;;;;;17.30;99.90;;;;;;5101003;28;20386;-55
2023/07/03 01:57:38;;;;;;;;;;;17.30;99.90;;;;;;5100665;28;19908;-53
2023/07/03 02:00:06;;;;;;;;;;;17.30;99.90;;;;;;5100613;28;19908;-55
2023/07/03 02:02:32;;;;;;;;;;;17.30;99.90;;;;;;5100646;28;20279;-52
2023/07/03 02:05:02;;;;;;;;;;;17.30;99.90;;;;;;5100869;28;19923;-52
2023/07/03 02:07:28;;;;;;;;;;;17.30;99.90;;;;;;5100495;28;19908;-54
2023/07/03 02:09:54;;;;;;;;;;;17.30;99.90;;;;;;5100196;28;20332;-55
2023/07/03 02:12:20;;;;;;;;;;;17.30;99.90;;;;;;5100553;28;19935;-53
2023/07/03 02:14:45;;;;;;;;;;;17.20;99.90;;;;;;5100360;28;19978;-54
2023/07/03 02:17:12;;;;;;;;;;;17.20;99.90;;;;;;5100818;28;20361;-52
2023/07/03 02:19:37;;;;;;;;;;;17.20;99.90;;;;;;5100394;28;19916;-54
2023/07/03 02:22:03;;;;;;;;;;;17.20;99.90;;;;;;5100147;28;19908;-53
2023/07/03 02:24:29;;;;;;;;;;;17.20;99.90;;;;;;5100617;28;19931;-52
2023/07/03 02:26:55;;;;;;;;;;;17.20;99.90;;;;;;5100657;28;19908;-54
2023/07/03 02:29:20;;;;;;;;;;;17.20;99.90;;;;;;5100092;28;19958;-53
2023/07/03 02:31:46;;;;;;;;;;;17.20;99.90;;;;;;5100348;28;19915;-53
2023/07/03 02:34:12;;;;;;;;;;;17.20;99.90;;;;;;5100148;28;19912;-54
2023/07/03 02:36:39;;;;;;;;;;;17.20;99.90;;;;;;5100056;28;20298;-54
2023/07/03 02:39:05;;;;;;;;;;;17.20;99.90;;;;;;5100178;28;19915;-49
2023/07/03 02:41:31;;;;;;;;;;;17.20;99.90;;;;;;5099562;28;20314;-55
2023/07/03 02:43:57;;;;;;;;;;;17.20;99.90;;;;;;5100049;28;19961;-53
2023/07/03 02:46:22;;;;;;;;;;;17.10;99.90;;;;;;5100055;28;19908;-52
2023/07/03 02:48:48;;;;;;;;;;;17.10;99.90;;;;;;5099921;28;19908;-53
2023/07/03 02:51:14;;;;;;;;;;;17.10;99.90;;;;;;5100065;28;19915;-54
2023/07/03 02:53:39;;;;;;;;;;;17.20;99.90;;;;;;5099664;28;19965;-55
2023/07/03 02:56:05;;;;;;;;;;;17.20;99.90;;;;;;5099599;28;19908;-55
2023/07/03 02:58:31;;;;;;;;;;;17.20;99.90;;;;;;5099569;28;19908;-54
2023/07/03 03:00:57;;;;;;;;;;;17.20;99.90;;;;;;5098153;28;19998;-54
2023/07/03 03:03:23;;;;;;;;;;;17.20;99.90;;;;;;5099625;28;19991;-50
2023/07/03 03:05:48;;;;;;;;;;;17.20;99.90;;;;;;5099533;28;20335;-52
2023/07/03 03:08:14;;;;;;;;;;;17.20;99.90;;;;;;5099091;28;20019;-54
2023/07/03 03:10:40;;;;;;;;;;;17.20;99.90;;;;;;5099293;28;19912;-54
2023/07/03 03:13:05;;;;;;;;;;;17.20;99.90;;;;;;5099619;28;19908;-54
2023/07/03 03:15:34;;;;;;;;;;;17.70;99.90;;;;;;5099164;28;20282;-53
2023/07/03 03:18:00;;;;;;;;;;;17.10;99.90;;;;;;5099524;28;19908;-54
2023/07/03 03:20:25;;;;;;;;;;;17.10;99.90;;;;;;5099054;28;19919;-53
2023/07/03 03:22:51;;;;;;;;;;;17.10;99.90;;;;;;5098536;28;19977;-53
2023/07/03 03:25:17;;;;;;;;;;;17.10;99.90;;;;;;5099056;28;19969;-51
2023/07/03 03:27:42;;;;;;;;;;;17.00;99.90;;;;;;5098862;28;19911;-54
2023/07/03 03:30:08;;;;;;;;;;;17.00;99.90;;;;;;5099256;28;19915;-52
2023/07/03 03:32:34;;;;;;;;;;;17.00;99.90;;;;;;5098914;28;19908;-53
2023/07/03 03:35:00;;;;;;;;;;;17.00;99.90;;;;;;5098887;28;20441;-51
2023/07/03 03:37:26;;;;;;;;;;;16.90;99.90;;;;;;5098726;28;20394;-54
2023/07/03 03:39:52;;;;;;;;;;;17.00;99.90;;;;;;5099040;28;19908;-52
2023/07/03 03:42:17;;;;;;;;;;;16.90;99.90;;;;;;5097068;28;19920;-52
2023/07/03 03:44:43;;;;;;;;;;;16.90;99.90;;;;;;5099163;28;20053;-55
2023/07/03 03:47:09;;;;;;;;;;;16.90;99.90;;;;;;5098709;28;19936;-55
2023/07/03 03:49:34;;;;;;;;;;;16.90;99.90;;;;;;5099114;28;20267;-54
2023/07/03 03:52:00;;;;;;;;;;;16.90;99.90;;;;;;5098824;28;19999;-54
2023/07/03 03:54:29;;;;;;;;;;;16.90;99.90;;;;;;5097276;28;20404;-52
2023/07/03 03:56:55;;;;;;;;;;;16.90;99.90;;;;;;5099104;28;19990;-54
2023/07/03 03:59:21;;;;;;;;;;;16.90;99.90;;;;;;5098462;28;20386;-53
2023/07/03 04:01:48;;;;;;;;;;;16.90;99.90;;;;;;5098353;28;19915;-53
2023/07/03 04:04:14;;;;;;;;;;;16.90;99.90;;;;;;5098829;28;20060;-52
2023/07/03 04:06:39;;;;;;;;;;;16.80;99.90;;;;;;5097030;28;19921;-52
2023/07/03 04:09:07;;;;;;;;;;;16.80;99.90;;;;;;5098661;28;19915;-53
2023/07/03 04:11:36;;;;;;;;;;;16.80;99.90;;;;;;5098295;28;19909;-50
2023/07/03 04:14:02;;;;;;;;;;;16.80;99.90;;;;;;5098344;28;20370;-51
2023/07/03 04:16:29;;;;;;;;;;;16.80;99.90;;;;;;5098345;28;19915;-53
2023/07/03 04:18:55;;;;;;;;;;;16.80;99.90;;;;;;5098183;28;19934;-54
2023/07/03 04:21:20;;;;;;;;;;;16.80;99.90;;;;;;5098453;28;19908;-53
2023/07/03 04:23:46;;;;;;;;;;;16.80;99.90;;;;;;5098101;28;19908;-55
2023/07/03 04:26:12;;;;;;;;;;;16.80;99.90;;;;;;5098443;28;19954;-54
2023/07/03 04:28:38;;;;;;;;;;;16.80;99.90;;;;;;5098381;28;19935;-50
2023/07/03 04:31:03;;;;;;;;;;;16.80;99.90;;;;;;5098235;28;19947;-54
2023/07/03 04:33:29;;;;;;;;;;;16.80;99.90;;;;;;5098044;28;19908;-54
2023/07/03 04:35:54;;;;;;;;;;;16.80;99.90;;;;;;5098155;28;19912;-51
2023/07/03 04:38:23;;;;;;;;;;;16.80;99.90;;;;;;5098123;28;19919;-53
2023/07/03 04:40:53;;;;;;;;;;;16.80;99.90;;;;;;5096279;28;19926;-53
2023/07/03 04:43:19;;;;;;;;;;;16.80;99.90;;;;;;5098036;28;19936;-54
2023/07/03 04:45:46;;;;;;;;;;;16.80;99.90;;;;;;5098050;28;19908;-52
2023/07/03 04:48:12;;;;;;;;;;;16.80;99.90;;;;;;5098014;28;19908;-54
2023/07/03 04:50:38;;;;;;;;;;;16.80;99.90;;;;;;5097710;28;19915;-53
2023/07/03 04:53:06;;;;;;;;;;;16.80;99.90;;;;;;5097662;28;19909;-54
2023/07/03 04:55:32;;;;;;;;;;;16.80;99.90;;;;;;5097885;28;19912;-53
2023/07/03 04:57:59;;;;;;;;;;;16.90;99.90;;;;;;5097819;28;19912;-53
2023/07/03 05:00:27;;;;;;;;;;;16.80;99.90;;;;;;5097645;28;20317;-54
2023/07/03 05:03:00;;;;;;;;;;;16.80;99.90;;;;;;5097962;28;20318;-54
2023/07/03 05:05:25;;;;;;;;;;;16.80;99.90;;;;;;5097725;28;19917;-53
2023/07/03 05:07:51;;;;;;;;;;;16.90;99.90;;;;;;5097972;28;20383;-54
2023/07/03 05:10:17;;;;;;;;;;;16.90;99.90;;;;;;5097620;28;20348;-52
2023/07/03 05:12:44;;;;;;;;;;;16.90;99.90;;;;;;5097831;28;20310;-51
2023/07/03 05:15:10;;;;;;;;;;;16.90;99.90;;;;;;5097522;28;20420;-53
2023/07/03 05:17:38;;;;;;;;;;;16.90;99.90;;;;;;5097723;28;19915;-55
2023/07/03 05:20:13;;;;;;;;;;;16.90;99.90;;;;;;5097748;28;19908;-54
2023/07/03 05:22:42;;;;;;;;;;;17.00;99.90;;;;;;5097895;28;19997;-55
2023/07/03 05:25:09;;;;;;;;;;;17.00;99.90;;;;;;5097770;28;20284;-54
2023/07/03 05:27:35;;;;;;;;;;;16.90;99.90;;;;;;5097386;28;19950;-51
2023/07/03 05:30:02;;;;;;;;;;;16.90;99.90;;;;;;5097661;28;20367;-52
2023/07/03 05:32:27;;;;;;;;;;;16.90;99.90;;;;;;5097359;28;19912;-54
2023/07/03 05:34:54;;;;;;;;;;;16.90;99.90;;;;;;5097474;28;19964;-52
2023/07/03 05:37:19;;;;;;;;;;;16.90;99.90;;;;;;5097620;28;19909;-51
2023/07/03 05:39:47;;;;;;;;;;;16.90;99.90;;;;;;5097272;28;19923;-51
2023/07/03 05:42:14;;;;;;;;;;;16.80;99.90;;;;;;5096169;28;19967;-54
2023/07/03 05:44:40;;;;;;;;;;;16.90;99.90;;;;;;5097064;28;19908;-53
2023/07/03 05:47:06;;;;;;;;;;;16.90;99.90;;;;;;5100810;28;20390;-54
2023/07/03 05:49:31;;;;;;;;;;;16.90;99.90;;;;;;5100592;28;20650;-53
2023/07/03 05:51:57;;;;;;;;;;;16.90;99.90;;;;;;5101046;28;19947;-55
2023/07/03 05:54:23;;;;;;;;;;;16.90;99.90;;;;;;5100694;28;19955;-55
2023/07/03 05:56:58;;;;;;;;;;;16.90;99.90;;;;;;5100665;28;20371;-52
2023/07/03 05:59:24;;;;;;;;;;;17.00;99.90;;;;;;5100835;28;19914;-52
2023/07/03 06:01:50;;;;;;;;;;;17.00;99.90;;;;;;5100842;28;19914;-54
2023/07/03 06:04:17;;;;;;;;;;;17.00;99.90;;;;;;5100573;28;19943;-51
2023/07/03 06:06:42;;;;;;;;;;;17.10;99.90;;;;;;5100788;28;19952;-54
2023/07/03 06:09:08;;;;;;;;;;;17.10;99.90;;;;;;5100722;28;19915;-51
2023/07/03 06:11:34;;;;;;;;;;;17.20;99.90;;;;;;5100653;28;19915;-54
2023/07/03 06:14:01;;;;;;;;;;;17.20;99.90;;;;;;5100489;28;19908;-54
2023/07/03 06:16:27;;;;;;;;;;;17.30;99.90;;;;;;5100242;28;19908;-50
2023/07/03 06:18:54;;;;;;;;;;;17.40;99.90;;;;;;5100055;28;19932;-52
2023/07/03 06:21:19;;;;;;;;;;;17.40;99.90;;;;;;5100557;28;19908;-54
2023/07/03 06:23:45;;;;;;;;;;;17.50;99.90;;;;;;5100603;28;19957;-50
2023/07/03 06:26:11;;;;;;;;;;;17.50;99.90;;;;;;5100442;28;19955;-54
2023/07/03 06:28:36;;;;;;;;;;;17.50;99.90;;;;;;5100430;28;19917;-53
2023/07/03 06:31:02;;;;;;;;;;;17.60;99.90;;;;;;5100463;28;19916;-54
2023/07/03 06:33:28;;;;;;;;;;;17.70;99.90;;;;;;5099787;28;19908;-56
2023/07/03 06:35:54;;;;;;;;;;;17.70;99.90;;;;;;5100094;28;19964;-53
2023/07/03 06:38:19;;;;;;;;;;;17.70;99.90;;;;;;5099030;28;19912;-54
2023/07/03 06:40:54;;;;;;;;;;;17.80;99.90;;;;;;5099757;28;19916;-54
2023/07/03 06:43:20;;;;;;;;;;;17.90;99.90;;;;;;5098440;28;19958;-54
2023/07/03 06:45:45;;;;;;;;;;;17.90;99.90;;;;;;5100348;28;19908;-55
2023/07/03 06:48:11;;;;;;;;;;;17.90;99.90;;;;;;5100025;28;19916;-55
2023/07/03 06:50:36;;;;;;;;;;;17.90;99.90;;;;;;5099808;28;19915;-54
2023/07/03 06:53:02;;;;;;;;;;;17.90;99.90;;;;;;5099935;28;19946;-54
2023/07/03 06:55:28;;;;;;;;;;;17.80;99.90;;;;;;5099822;28;19965;-55
2023/07/03 06:57:53;;;;;;;;;;;17.80;99.90;;;;;;5098679;28;19954;-55
2023/07/03 07:00:19;;;;;;;;;;;17.90;99.90;;;;;;5099971;28;20336;-54
2023/07/03 07:02:45;;;;;;;;;;;17.90;99.90;;;;;;5099773;28;19908;-50
2023/07/03 07:05:10;;;;;;;;;;;17.80;99.90;;;;;;5099316;28;19916;-53
2023/07/03 07:07:36;;;;;;;;;;;17.90;99.90;;;;;;5099678;28;19908;-55
2023/07/03 07:10:01;;;;;;;;;;;17.90;99.90;;;;;;5099583;28;19960;-50
2023/07/03 07:12:27;;;;;;;;;;;18.00;99.90;;;;;;5099189;28;19909;-52
2023/07/03 07:14:53;;;;;;;;;;;18.10;99.90;;;;;;5098916;28;20032;-52
2023/07/03 07:17:19;;;;;;;;;;;18.20;99.90;;;;;;5099147;28;19908;-52
2023/07/03 07:19:45;;;;;;;;;;;18.20;99.90;;;;;;5098997;28;20007;-54
2023/07/03 07:22:10;;;;;;;;;;;18.30;99.90;;;;;;5099232;28;20027;-49
2023/07/03 07:24:36;;;;;;;;;;;18.40;99.90;;;;;;5099313;28;19908;-52
2023/07/03 07:27:03;;;;;;;;;;;18.40;99.90;;;;;;5098970;28;19957;-53
2023/07/03 07:29:29;;;;;;;;;;;18.50;99.90;;;;;;5098983;28;19915;-51
2023/07/03 07:31:56;;;;;;;;;;;18.60;99.90;;;;;;5097571;28;19908;-51
2023/07/03 07:34:21;;;;;;;;;;;18.60;99.90;;;;;;5099009;28;19916;-51
2023/07/03 07:36:47;;;;;;;;;;;18.60;99.90;;;;;;5098778;28;19908;-51
2023/07/03 07:39:13;;;;;;;;;;;18.70;99.90;;;;;;5099200;28;19951;-49
2023/07/03 07:41:39;;;;;;;;;;;18.80;99.90;;;;;;5098802;28;20269;-52
2023/07/03 07:44:05;;;;;;;;;;;18.90;99.90;;;;;;5098592;28;20003;-53
2023/07/03 07:46:31;;;;;;;;;;;19.10;99.90;;;;;;5099073;28;19943;-53
2023/07/03 07:48:57;;;;;;;;;;;19.20;99.90;;;;;;5098451;28;19908;-52
2023/07/03 07:51:24;;;;;;;;;;;19.10;99.90;;;;;;5098590;28;19983;-54
2023/07/03 07:53:50;;;;;;;;;;;19.20;99.90;;;;;;5098385;28;19957;-50
2023/07/03 07:56:27;;;;;;;;;;;19.10;99.90;;;;;;5098695;28;19908;-51
2023/07/03 07:58:53;;;;;;;;;;;19.00;99.90;;;;;;5098460;28;20387;-51
2023/07/03 08:01:19;;;;;;;;;;;19.10;99.90;;;;;;5098653;28;19922;-51
2023/07/03 08:03:45;;;;;;;;;;;19.00;99.90;;;;;;5098554;28;19908;-50
2023/07/03 08:06:12;;;;;;;;;;;18.80;99.90;;;;;;5098468;28;19912;-51
2023/07/03 08:08:37;;;;;;;;;;;19.00;99.90;;;;;;5097881;28;19908;-52
2023/07/03 08:11:04;;;;;;;;;;;19.10;99.90;;;;;;5098188;28;19958;-54
2023/07/03 08:13:30;;;;;;;;;;;19.10;99.90;;;;;;5097367;28;19908;-54
2023/07/03 08:15:56;;;;;;;;;;;19.20;99.90;;;;;;5098359;28;19912;-51
2023/07/03 08:18:22;;;;;;;;;;;19.20;99.90;;;;;;5098325;28;19915;-52
2023/07/03 08:20:48;;;;;;;;;;;19.20;99.90;;;;;;5096669;28;20248;-53
2023/07/03 08:23:14;;;;;;;;;;;19.30;99.90;;;;;;5098094;28;19908;-51
2023/07/03 08:25:40;;;;;;;;;;;19.30;99.90;;;;;;5098267;28;20013;-52
2023/07/03 08:31:11;;;;;;;;;;;18.80;99.90;;;;;;5092278;28;19912;-54
2023/07/03 08:33:37;;;;;;;;;;;18.80;99.90;;;;;;5097899;28;19914;-52
2023/07/03 08:36:02;;;;;;;;;;;18.80;99.90;;;;;;5098309;28;19918;-52
2023/07/03 08:38:28;;;;;;;;;;;18.70;99.90;;;;;;5098120;28;20354;-51
2023/07/03 08:40:58;;;;;;;;;;;18.80;99.90;;;;;;5097631;28;19928;-53
2023/07/03 08:43:23;;;;;;;;;;;18.80;99.90;;;;;;5097708;28;19990;-52
2023/07/03 08:45:51;;;;;;;;;;;19.00;99.90;;;;;;5097456;28;19947;-52
2023/07/03 08:48:22;;;;;;;;;;;19.10;99.90;;;;;;5097888;28;20367;-53
2023/07/03 08:50:50;;;;;;;;;;;19.10;99.90;;;;;;5097812;28;19947;-52
2023/07/03 08:53:19;;;;;;;;;;;19.00;99.90;;;;;;5097855;28;19909;-53
2023/07/03 08:56:00;;;;;;;;;;;19.00;99.90;;;;;;5097577;28;19919;-49
2023/07/03 08:58:26;;;;;;;;;;;19.10;99.90;;;;;;5097884;28;19922;-51
2023/07/03 09:01:04;;;;;;;;;;;19.10;99.90;;;;;;5097975;28;19930;-53
2023/07/03 09:03:40;;;;;;;;;;;19.00;99.90;;;;;;5097404;28;19915;-52
2023/07/03 09:06:15;;;;;;;;;;;19.00;99.90;;;;;;5097961;28;20282;-55
2023/07/03 09:09:05;;;;;;;;;;;19.20;99.90;;;;;;5097691;28;19908;-54
2023/07/03 09:11:33;;;;;;;;;;;19.10;99.90;;;;;;5098260;28;19990;-50
2023/07/03 09:14:00;;;;;;;;;;;19.10;99.90;;;;;;5097531;28;19915;-53
2023/07/03 09:16:26;;;;;;;;;;;19.30;99.90;;;;;;5097829;28;19915;-55
2023/07/03 09:18:51;;;;;;;;;;;19.40;99.90;;;;;;5097849;28;19908;-51
2023/07/03 09:21:17;;;;;;;;;;;19.40;99.90;;;;;;5099849;28;19908;-54
2023/07/03 09:23:45;;;;;;;;;;;19.40;99.90;;;;;;5101653;28;19908;-50
2023/07/03 09:26:16;;;;;;;;;;;19.70;99.90;;;;;;5101366;28;19919;-51
2023/07/03 09:28:42;;;;;;;;;;;19.80;99.90;;;;;;5101406;28;19908;-50
2023/07/03 09:31:08;;;;;;;;;;;19.80;99.90;;;;;;5101308;28;19915;-50
2023/07/03 09:33:33;;;;;;;;;;;19.70;99.90;;;;;;5101583;28;19966;-55
2023/07/03 09:36:18;;;;;;;;;;;19.80;99.90;;;;;;5101124;28;19913;-54
2023/07/03 09:38:44;;;;;;;;;;;20.00;99.90;;;;;;5101463;28;19908;-51
2023/07/03 09:41:10;;;;;;;;;;;19.90;99.90;;;;;;5100968;28;20437;-50
2023/07/03 09:43:41;;;;;;;;;;;19.80;99.90;;;;;;5101602;28;19909;-50
2023/07/03 09:46:09;;;;;;;;;;;19.80;99.90;;;;;;5101468;28;19912;-55
2023/07/03 09:48:36;;;;;;;;;;;19.80;99.90;;;;;;5101133;28;19931;-52
2023/07/03 09:51:05;;;;;;;;;;;19.70;99.90;;;;;;5100381;28;20139;-54
2023/07/03 09:53:30;;;;;;;;;;;19.50;99.90;;;;;;5100685;28;19912;-53
2023/07/03 09:55:57;;;;;;;;;;;19.40;99.90;;;;;;5101155;28;19955;-53
2023/07/03 09:58:25;;;;;;;;;;;19.40;99.90;;;;;;5100958;28;20409;-49
2023/07/03 10:00:51;;;;;;;;;;;19.40;99.90;;;;;;5100769;28;19908;-54
2023/07/03 10:03:25;;;;;;;;;;;19.30;99.90;;;;;;5101070;28;19971;-54
2023/07/03 10:05:51;;;;;;;;;;;19.50;99.90;;;;;;5100629;28;20363;-51
2023/07/03 10:08:21;;;;;;;;;;;19.60;99.90;;;;;;5100841;28;19909;-51
2023/07/03 10:10:47;;;;;;;;;;;19.90;99.90;;;;;;5100741;28;19908;-53
2023/07/03 10:13:16;;;;;;;;;;;20.10;99.90;;;;;;5100621;28;19908;-53
2023/07/03 10:15:42;;;;;;;;;;;20.30;99.90;;;;;;5100295;28;19974;-53
2023/07/03 10:18:13;;;;;;;;;;;20.10;99.90;;;;;;5100472;28;19916;-54
2023/07/03 10:20:43;;;;;;;;;;;20.10;99.90;;;;;;5100575;28;19936;-54
2023/07/03 10:23:17;;;;;;;;;;;20.10;99.90;;;;;;5100134;28;20321;-51
2023/07/03 10:25:47;;;;;;;;;;;20.40;99.90;;;;;;5100240;28;19909;-52
2023/07/03 10:28:17;;;;;;;;;;;21.30;99.90;;;;;;5099969;28;20310;-54
2023/07/03 10:30:43;;;;;;;;;;;21.60;99.90;;;;;;5100129;28;19908;-50
2023/07/03 10:33:14;;;;;;;;;;;22.20;99.90;;;;;;5100015;28;19909;-51
2023/07/03 10:35:41;;;;;;;;;;;22.50;99.80;;;;;;5100290;28;20237;-54
2023/07/03 10:38:17;;;;;;;;;;;22.40;95.40;;;;;;5100037;28;19930;-53
2023/07/03 10:41:03;;;;;;;;;;;22.60;97.90;;;;;;5100031;28;19916;-52
2023/07/03 10:43:31;;;;;;;;;;;23.80;96.70;;;;;;5100384;28;20343;-53
2023/07/03 10:45:57;;;;;;;;;;;25.00;91.20;;;;;;5100085;28;19908;-53
2023/07/03 10:48:26;;;;;;;;;;;25.10;89.20;;;;;;5100083;28;19940;-52
2023/07/03 10:50:56;;;;;;;;;;;25.50;82.50;;;;;;5100032;28;19908;-53
2023/07/03 10:53:54;;;;;;;;;;;25.40;75.90;;;;;;5099543;28;20273;-51
2023/07/03 10:56:21;;;;;;;;;;;25.30;72.50;;;;;;5076655;28;19923;-53
2023/07/03 10:59:05;;;;;;;;;;;24.80;80.90;;;;;;5099799;28;19908;-55
2023/07/03 11:01:39;;;;;;;;;;;25.60;72.70;;;;;;5099385;28;20390;-53
2023/07/03 11:04:09;;;;;;;;;;;25.70;75.90;;;;;;5099302;28;19958;-52
2023/07/03 11:06:40;;;;;;;;;;;26.50;70.50;;;;;;5099714;28;19999;-54
2023/07/03 11:09:11;;;;;;;;;;;25.90;77.30;;;;;;5099378;28;19908;-53
2023/07/03 11:11:40;;;;;;;;;;;26.10;67.30;;;;;;5099588;28;19915;-52
2023/07/03 11:14:15;;;;;;;;;;;26.00;67.70;;;;;;5099408;28;19908;-54
2023/07/03 11:16:49;;;;;;;;;;;26.60;75.20;;;;;;5099597;28;19927;-54
2023/07/03 11:19:20;;;;;;;;;;;27.80;69.00;;;;;;5099194;28;19908;-52
2023/07/03 11:21:47;;;;;;;;;;;28.40;67.30;;;;;;5099355;28;19908;-53
2023/07/03 11:24:31;;;;;;;;;;;28.10;68.10;;;;;;5099031;28;19963;-52
2023/07/03 11:27:15;;;;;;;;;;;28.40;72.40;;;;;;5099258;28;20329;-54
2023/07/03 11:29:41;;;;;;;;;;;27.90;64.90;;;;;;5097668;28;20331;-53
2023/07/03 11:32:07;;;;;;;;;;;27.00;64.40;;;;;;5099404;28;19915;-51
2023/07/03 11:34:33;;;;;;;;;;;26.30;68.70;;;;;;5098927;28;19912;-54
2023/07/03 11:36:59;;;;;;;;;;;27.40;65.60;;;;;;5099043;28;19908;-53
2023/07/03 11:39:28;;;;;;;;;;;28.40;66.30;;;;;;5098982;28;19908;-53
2023/07/03 11:42:00;;;;;;;;;;;27.60;61.20;;;;;;5094672;28;19924;-55
2023/07/03 11:44:39;;;;;;;;;;;26.80;60.90;;;;;;5098349;28;19912;-52
2023/07/03 11:47:06;;;;;;;;;;;25.60;62.30;;;;;;5098609;28;19908;-52
2023/07/03 11:49:32;;;;;;;;;;;25.20;64.30;;;;;;5098575;28;19909;-53
2023/07/03 11:52:00;;;;;;;;;;;25.00;65.10;;;;;;5098811;28;19957;-52
2023/07/03 11:54:27;;;;;;;;;;;24.50;64.70;;;;;;5098406;28;20330;-52
2023/07/03 11:57:24;;;;;;;;;;;;;;;;;;;;;
2023/07/03 11:59:50;;;;;;;;;;;23.90;69.40;;;;;;5078804;28;19991;-53
2023/07/03 12:02:16;;;;;;;;;;;24.10;67.80;;;;;;5097361;28;19947;-53
2023/07/03 12:04:51;;;;;;;;;;;24.20;70.00;;;;;;5097531;28;20407;-54
2023/07/03 12:07:16;;;;;;;;;;;23.90;68.30;;;;;;5097657;28;19977;-55
2023/07/03 12:09:42;;;;;;;;;;;23.90;68.70;;;;;;5098526;28;19912;-50
2023/07/03 12:12:12;;;;;;;;;;;23.80;70.40;;;;;;5098407;28;19915;-54
2023/07/03 12:14:42;;;;;;;;;;;24.30;68.70;;;;;;5094416;28;19916;-54
2023/07/03 12:17:18;;;;;;;;;;;24.70;68.70;;;;;;5096941;28;19909;-49
2023/07/03 12:19:44;;;;;;;;;;;25.00;65.60;;;;;;5097932;28;19915;-52
2023/07/03 12:22:14;;;;;;;;;;;24.40;66.90;;;;;;5097601;28;20404;-55
2023/07/03 12:24:39;;;;;;;;;;;24.80;66.10;;;;;;5097029;28;19958;-52
2023/07/03 12:27:06;;;;;;;;;;;24.40;65.00;;;;;;5097550;28;19912;-48
2023/07/03 12:29:33;;;;;;;;;;;24.10;67.00;;;;;;5097684;28;19908;-53
2023/07/03 12:32:07;;;;;;;;;;;23.90;70.50;;;;;;5097533;28;19908;-53
2023/07/03 12:34:37;;;;;;;;;;;23.60;68.60;;;;;;5096788;28;19926;-53
2023/07/03 12:37:24;;;;;;;;;;;23.60;70.10;;;;;;5097514;28;19915;-54
2023/07/03 12:39:50;;;;;;;;;;;23.60;68.40;;;;;;5097334;28;19958;-52
2023/07/03 12:42:20;;;;;;;;;;;23.50;69.10;;;;;;5097164;28;19920;-50
2023/07/03 12:44:46;;;;;;;;;;;23.60;69.40;;;;;;5096953;28;19919;-53
2023/07/03 12:47:15;;;;;;;;;;;24.40;68.80;;;;;;5097562;28;19908;-56
2023/07/03 12:50:00;;;;;;;;;;;24.40;66.00;;;;;;5097356;28;19915;-53
2023/07/03 12:52:30;;;;;;;;;;;24.00;65.40;;;;;;5095518;28;19920;-53
2023/07/03 12:54:56;;;;;;;;;;;23.80;66.90;;;;;;5101035;28;19969;-52
2023/07/03 12:57:22;;;;;;;;;;;24.00;65.90;;;;;;5121758;28;19990;-52
2023/07/03 12:59:48;;;;;;;;;;;24.40;66.00;;;;;;5121945;28;19995;-64
2023/07/03 13:02:22;;;;;;;;;;;24.50;63.90;;;;;;5121820;28;19908;-64
2023/07/03 13:04:52;;;;;;;;;;;24.00;65.60;;;;;;5121256;28;19908;-64
2023/07/03 13:07:18;;;;;;;;;;;24.40;64.30;;;;;;5121880;28;19912;-64
2023/07/03 13:09:44;;;;;;;;;;;24.10;63.90;;;;;;5121459;28;19908;-64
2023/07/03 13:12:20;;;;;;;;;;;23.80;67.10;;;;;;5119827;28;19908;-64
2023/07/03 13:15:06;;;;;;;;;;;23.60;67.30;;;;;;5119744;28;19916;-64
2023/07/03 13:17:32;;;;;;;;;;;23.90;68.80;;;;;;5121531;28;19943;-64
2023/07/03 13:20:17;;;;;;;;;;;23.70;66.70;;;;;;5121466;28;19907;-64
2023/07/03 13:22:49;;;;;;;;;;;23.50;67.00;;;;;;5121210;28;19907;-64
2023/07/03 13:25:25;;;;;;;;;;;23.20;69.80;;;;;;5120912;28;20397;-64
2023/07/03 13:27:51;;;;;;;;;;;23.40;68.60;;;;;;5121205;28;19908;-64
2023/07/03 13:30:21;;;;;;;;;;;23.20;67.80;;;;;;5121204;28;20423;-64
2023/07/03 13:32:51;;;;;;;;;;;23.10;68.80;;;;;;5121164;28;19954;-64
2023/07/03 13:35:25;;;;;;;;;;;23.30;68.90;;;;;;5121537;28;19912;-64
2023/07/03 13:37:50;;;;;;;;;;;23.50;66.90;;;;;;5120688;28;19908;-64
2023/07/03 13:40:16;;;;;;;;;;;23.40;66.90;;;;;;5121702;28;19914;-64
2023/07/03 13:42:41;;;;;;;;;;;23.80;67.90;;;;;;5121987;28;19916;-64
2023/07/03 13:45:07;;;;;;;;;;;23.90;65.00;;;;;;5121505;28;19954;-64
2023/07/03 13:47:33;;;;;;;;;;;24.50;65.00;;;;;;5121430;28;19907;-64
2023/07/03 13:50:00;;;;;;;;;;;24.80;62.90;;;;;;5121699;28;20446;-64
2023/07/03 13:52:26;;;;;;;;;;;24.40;62.70;;;;;;5121345;28;19936;-64
2023/07/03 13:54:52;;;;;;;;;;;24.70;63.50;;;;;;5121604;28;19912;-64
2023/07/03 13:57:17;;;;;;;;;;;24.70;61.10;;;;;;5120275;28;19989;-64
2023/07/03 13:59:43;;;;;;;;;;;24.20;62.30;;;;;;5121680;28;20376;-64
2023/07/03 14:02:08;;;;;;;;;;;23.90;61.90;;;;;;5121121;28;19951;-64
2023/07/03 14:04:34;;;;;;;;;;;24.10;64.20;;;;;;5121333;28;19946;-64
2023/07/03 14:07:00;;;;;;;;;;;24.50;62.10;;;;;;5120224;28;19914;-63
2023/07/03 14:09:25;;;;;;;;;;;24.30;61.90;;;;;;5120931;28;20338;-64
2023/07/03 14:11:51;;;;;;;;;;;24.50;61.40;;;;;;5120875;28;20345;-63
2023/07/03 14:14:17;;;;;;;;;;;24.70;61.50;;;;;;5121043;28;19991;-63
2023/07/03 14:16:42;;;;;;;;;;;24.60;60.90;;;;;;5121282;28;19915;-64
2023/07/03 14:19:08;;;;;;;;;;;24.50;61.50;;;;;;5120878;28;19931;-63
2023/07/03 14:21:34;;;;;;;;;;;24.60;61.50;;;;;;5120640;28;19908;-64
2023/07/03 14:24:00;;;;;;;;;;;24.50;60.90;;;;;;5121034;28;19908;-63
2023/07/03 14:26:25;;;;;;;;;;;24.40;60.80;;;;;;5120638;28;19919;-64